Domov               UVHVVR             MKGP            O straneh              
ZDRAVSTVENO VARSTVO RASTLIN
  MREŽA AGROMET. POSTAJ
 ► PROGNOSTIČNA OBVESTILA
AGROMETEOROLOŠKI PODATKI -
ARSO
OBVLADOVANJE TVEGANJ ZARADI
NEUGODNIH VREMENSKIH RAZMER
  ► NARAVNE NESREČE
  ► SUŠA/MOČA
  ► NAMAKANJE
  ► ŽLED (gozdarstvo)
KARTOGRAFSKI PRIKAZI
SPLETNE POVEZAVE
PROJEKTI IN PUBLIKACIJE

AGROMETEOROLOŠKA MREŽA: VREMENSKE POSTAJE IN FENOLOŠKA OPAZOVANJA

Pregled podatkov za lokacijo Parižlje, meteorološka postaja 24303

Pregled senzorjev na lokaciji

ID Ime Zadnja
vrednost
Datum
zadnje
spremembe
Tip
senzorja
1493 Temperatura 2 m ( °C) 20,07 °C 28.6.2017 17:00 Generic -40 - +60 °C
1494 Relativna vlaga 2 m (% RH) 89,38 % RH 28.6.2017 17:00 Generic 0 - 100 %
1495 Omočenost lista (U) 10 U 28.6.2017 17:00 A730WET
1496 Padavine 0.2 mm (mm) 0,2 mm 28.6.2017 17:00
2139 Sončno sevanje (W/m2) 79,66 W/m2 28.6.2017 17:00 MS-020VM 1400 W/m²

Pregled podatkov zadnjih 24 ur

Zap.
št.
Datum in čas Parižlje
Omočenost
lista
Padavine
0.2
mm
Relativna
vlaga
2
m
Sončno
sevanje
Temperatura
2
m
0 28.6.2017 16:00 10 0,2 89,38 79,66 20,07
1 28.6.2017 15:30 10 0 94,77 35,56 19,37
2 28.6.2017 15:00 10 0 95,29 70,43 19,32
3 28.6.2017 14:30 10 7,4 94,97 51,97 18,97
4 28.6.2017 14:00 10 2,4 93,38 36,92 19,41
5 28.6.2017 13:30 10 0 89,43 105,64 19,24
6 28.6.2017 13:00 10 11,2 94,58 47,18 18,68
7 28.6.2017 12:30 0 0 63,3 154,53 26,32
8 28.6.2017 12:00 2 0 62,54 147,69 26,42
9 28.6.2017 11:30 0 0 57,48 239,66 27,47
10 28.6.2017 11:00 0 0 57,53 413,33 27,81
11 28.6.2017 10:30 0 0 55,7 384,96 27,03
12 28.6.2017 10:00 0 0 56,41 289,57 26,08
13 28.6.2017 09:30 0 0 55,68 297,44 26,2
14 28.6.2017 09:00 0 0 57,78 274,53 25,71
15 28.6.2017 08:30 0 0 62,54 261,2 23,88
16 28.6.2017 08:00 0 0 69,35 161,37 22,25
17 28.6.2017 07:30 0 0 71,33 174,7 21,07
18 28.6.2017 07:00 3 0 74,8 133,68 19,46
19 28.6.2017 06:30 10 0 83,83 68,72 17,85
20 28.6.2017 06:00 10 0 87,55 65,3 17,05
21 28.6.2017 05:30 10 0 91,72 29,4 15,73
22 28.6.2017 05:00 10 0 92,97 8,89 15,41
23 28.6.2017 04:30 10 0 93,16 2,39 15,29
24 28.6.2017 04:00 10 0 94,11 0 15,04
25 28.6.2017 03:30 10 0 92,36 0 15,68
26 28.6.2017 03:00 10 0 91,77 0 15,82
27 28.6.2017 02:30 10 0 92,8 0 15,82
28 28.6.2017 02:00 10 0 92,45 0 15,85
29 28.6.2017 01:30 9 0 92,5 0 16,12
30 28.6.2017 01:00 7 0 92,23 0 16,48
31 28.6.2017 00:30 6 0 90,74 0 16,75
32 28.6.2017 00:00 5 0 91,87 0 16,78
33 27.6.2017 23:30 4 0 92,41 0 16,68
34 27.6.2017 23:00 3 0 93,09 0 16,95
35 27.6.2017 22:30 2 0 91,92 0 17,36
36 27.6.2017 22:00 1 0 91,26 0 17,78
37 27.6.2017 21:30 1 0 88,11 0 18,24
38 27.6.2017 21:00 0 0 88,62 0 18,85
39 27.6.2017 20:30 0 0 86,57 0 19,73
40 27.6.2017 20:00 0 0 83,44 4,44 20,9
41 27.6.2017 19:30 0 0 79,29 14,36 22,08
42 27.6.2017 19:00 0 0 69,94 27,01 23,3
43 27.6.2017 18:30 0 0 62,66 51,97 24,4
44 27.6.2017 18:00 0 0 56,9 55,04 24,47
© 2011 Ministrstvo za kmetijstvo, gozdarstvo in prehrano. Vse pravice pridržane.